createdAt,value
2019-05-14T00:01:51.425Z,8.50
2019-05-14T00:04:22.062Z,8.40
2019-05-14T00:06:51.982Z,8.30
2019-05-14T00:09:21.576Z,8.40
2019-05-14T00:11:51.246Z,8.20
2019-05-14T00:14:22.079Z,8.20
2019-05-14T00:16:51.487Z,8.20
2019-05-14T00:19:21.571Z,8.20
2019-05-14T00:21:51.434Z,8.20
2019-05-14T00:24:21.722Z,8.30
2019-05-14T00:26:51.704Z,8.30
2019-05-14T00:29:22.017Z,8.30
2019-05-14T00:31:51.678Z,8.30
2019-05-14T00:34:21.506Z,8.30
2019-05-14T00:36:52.471Z,8.40
2019-05-14T00:39:22.048Z,8.30
2019-05-14T00:41:51.440Z,8.40
2019-05-14T00:44:21.563Z,8.40
2019-05-14T00:46:51.678Z,8.30
2019-05-14T00:49:21.281Z,8.30
2019-05-14T00:51:51.959Z,8.30
2019-05-14T00:54:21.616Z,8.30
2019-05-14T00:56:52.201Z,8.40
2019-05-14T00:59:21.717Z,8.40
2019-05-14T01:01:51.602Z,8.40
2019-05-14T01:04:22.248Z,8.50
2019-05-14T01:06:51.523Z,8.50
2019-05-14T01:09:21.780Z,8.50
2019-05-14T01:11:51.392Z,8.50
2019-05-14T01:14:21.150Z,8.50
2019-05-14T01:16:51.376Z,8.50
2019-05-14T01:19:21.435Z,8.50
2019-05-14T01:21:51.176Z,8.50
2019-05-14T01:24:21.576Z,8.40
2019-05-14T01:26:52.259Z,8.40
2019-05-14T01:29:21.941Z,8.30
2019-05-14T01:31:52.597Z,8.40
2019-05-14T01:34:21.836Z,8.40
2019-05-14T01:36:52.954Z,8.50
2019-05-14T01:39:22.657Z,8.60
2019-05-14T01:41:51.890Z,8.60
2019-05-14T01:44:21.440Z,8.50
2019-05-14T01:46:51.264Z,8.40
2019-05-14T01:49:22.126Z,8.30
2019-05-14T01:51:51.435Z,8.30
2019-05-14T01:54:21.168Z,8.30
2019-05-14T01:56:51.509Z,8.20
2019-05-14T01:59:21.324Z,8.10
2019-05-14T02:01:51.742Z,8.00
2019-05-14T02:04:22.108Z,8.00
2019-05-14T02:06:51.627Z,8.00
2019-05-14T02:09:21.685Z,7.90
2019-05-14T02:11:51.869Z,7.90
2019-05-14T02:14:22.011Z,7.90
2019-05-14T02:16:51.343Z,7.90
2019-05-14T02:19:22.177Z,7.90
2019-05-14T02:21:51.585Z,7.90
2019-05-14T02:24:21.777Z,7.90
2019-05-14T02:26:51.572Z,8.00
2019-05-14T02:29:21.446Z,8.00
2019-05-14T02:31:50.882Z,7.90
2019-05-14T02:34:20.167Z,7.80
2019-05-14T02:36:49.805Z,7.70
2019-05-14T02:39:19.806Z,7.70
2019-05-14T02:41:49.977Z,7.80
2019-05-14T02:44:19.373Z,7.80
2019-05-14T02:46:50.651Z,7.80
2019-05-14T02:49:19.707Z,7.70
2019-05-14T02:51:50.372Z,7.60
2019-05-14T02:54:20.526Z,7.60
2019-05-14T02:56:49.914Z,7.60
2019-05-14T02:59:19.744Z,7.50
2019-05-14T03:01:50.309Z,7.50
2019-05-14T03:04:20.124Z,7.50
2019-05-14T03:06:50.046Z,7.30
2019-05-14T03:09:20.442Z,7.20
2019-05-14T03:11:50.473Z,7.10
2019-05-14T03:14:19.904Z,7.00
2019-05-14T03:16:49.946Z,7.00
2019-05-14T03:19:19.760Z,7.00
2019-05-14T03:21:50.131Z,7.00
2019-05-14T03:24:19.923Z,6.90
2019-05-14T03:26:50.174Z,6.90
2019-05-14T03:29:19.819Z,6.70
2019-05-14T03:31:52.948Z,6.70
2019-05-14T03:34:22.375Z,6.70
2019-05-14T03:36:53.180Z,6.60
2019-05-14T03:39:22.139Z,6.60
2019-05-14T03:41:51.463Z,6.60
2019-05-14T03:44:20.821Z,6.50
2019-05-14T03:46:55.143Z,6.50
2019-05-14T03:49:21.056Z,6.40
2019-05-14T03:51:50.424Z,6.40
2019-05-14T03:54:19.798Z,6.30
2019-05-14T03:56:49.790Z,6.40
2019-05-14T03:59:20.077Z,6.40
2019-05-14T04:01:51.004Z,6.50
2019-05-14T04:04:20.901Z,6.50
2019-05-14T04:06:51.367Z,6.50
2019-05-14T04:09:21.827Z,6.60
2019-05-14T04:11:53.567Z,6.60
2019-05-14T04:14:24.877Z,6.60
2019-05-14T04:17:05.355Z,6.60
2019-05-14T04:19:29.813Z,6.70
2019-05-14T04:22:00.125Z,6.70
2019-05-14T04:24:36.208Z,6.80
2019-05-14T04:27:11.474Z,6.80
2019-05-14T04:29:41.382Z,6.80
2019-05-14T04:32:20.137Z,6.90
2019-05-14T04:34:59.677Z,7.00
2019-05-14T04:40:19.252Z,7.00
2019-05-14T04:49:04.131Z,7.20
2019-05-14T04:51:39.848Z,7.20
2019-05-14T05:01:53.063Z,7.30
2019-05-14T05:08:03.253Z,7.10
2019-05-14T05:10:41.159Z,7.20
2019-05-14T05:13:13.207Z,7.30
2019-05-14T05:15:49.573Z,7.40
2019-05-14T05:18:18.894Z,7.40
2019-05-14T05:21:08.187Z,7.50
2019-05-14T05:24:09.934Z,7.40
2019-05-14T05:49:03.882Z,8.00
2019-05-14T05:52:04.635Z,8.10
2019-05-14T05:55:13.898Z,8.00
2019-05-14T06:26:22.233Z,9.00
2019-05-14T06:39:23.491Z,9.30
2019-05-14T07:12:23.922Z,10.20
2019-05-14T07:18:30.175Z,10.40
2019-05-14T07:21:23.589Z,10.40
2019-05-14T07:32:55.379Z,10.40
2019-05-14T07:36:12.248Z,10.50
2019-05-14T07:42:19.481Z,10.80
2019-05-14T07:45:15.494Z,10.40
2019-05-14T07:54:36.178Z,10.30
2019-05-14T07:56:30.692Z,10.20
2019-05-14T08:05:29.522Z,10.30
2019-05-14T08:14:49.999Z,10.60
2019-05-14T08:38:58.180Z,10.50
2019-05-14T08:49:59.965Z,10.60
2019-05-14T08:53:10.870Z,10.80
2019-05-14T08:56:19.357Z,10.70
2019-05-14T09:08:22.944Z,10.60
2019-05-14T10:07:49.459Z,12.00
2019-05-14T10:17:49.967Z,12.40
2019-05-14T10:20:53.768Z,12.60
2019-05-14T10:26:08.893Z,13.80
2019-05-14T10:29:39.279Z,14.10
2019-05-14T10:32:40.624Z,13.90
2019-05-14T10:35:40.216Z,13.50
2019-05-14T10:54:55.589Z,12.40
2019-05-14T10:57:54.044Z,12.80
2019-05-14T11:00:50.996Z,13.60
2019-05-14T11:04:34.602Z,14.00
2019-05-14T11:14:18.967Z,14.10
2019-05-14T11:17:12.948Z,13.40
2019-05-14T11:23:31.148Z,12.70
2019-05-14T11:29:49.073Z,12.10
2019-05-14T11:36:49.611Z,11.80
2019-05-14T11:40:20.845Z,12.50
2019-05-14T11:46:52.607Z,12.60
2019-05-14T11:52:48.461Z,12.40
2019-05-14T11:55:45.908Z,12.50
2019-05-14T12:01:39.259Z,12.30
2019-05-14T12:04:34.967Z,12.70
2019-05-14T12:07:54.604Z,12.70
2019-05-14T12:10:54.983Z,12.70
2019-05-14T12:14:02.296Z,12.70
2019-05-14T12:16:49.452Z,12.20
2019-05-14T12:23:12.270Z,10.90
2019-05-14T12:26:30.129Z,10.50
2019-05-14T12:29:52.326Z,10.70
2019-05-14T12:33:02.404Z,11.10
2019-05-14T12:35:39.984Z,11.20
2019-05-14T12:38:48.624Z,11.40
2019-05-14T12:42:10.062Z,11.40
2019-05-14T12:44:51.118Z,11.10
2019-05-14T12:48:02.282Z,11.10
2019-05-14T12:54:29.655Z,11.20
2019-05-14T12:57:54.226Z,11.20
2019-05-14T13:00:45.515Z,11.20
2019-05-14T13:03:34.554Z,11.00
2019-05-14T13:06:40.059Z,11.10
2019-05-14T13:09:52.703Z,11.10
2019-05-14T13:16:04.606Z,11.30
2019-05-14T13:19:01.021Z,11.40
2019-05-14T13:24:51.395Z,11.10
2019-05-14T13:27:33.122Z,11.10
2019-05-14T13:33:24.543Z,11.00
2019-05-14T13:36:28.820Z,11.00
2019-05-14T13:39:20.872Z,10.90
2019-05-14T13:42:31.563Z,11.00
2019-05-14T13:54:00.659Z,11.20
2019-05-14T13:56:03.790Z,11.30
2019-05-14T13:59:49.353Z,11.30
2019-05-14T14:14:05.364Z,11.40
2019-05-14T14:20:59.727Z,11.50
2019-05-14T14:34:59.044Z,11.10
2019-05-14T14:39:00.790Z,11.10
2019-05-14T14:53:45.962Z,11.20
2019-05-14T15:03:03.571Z,11.60
2019-05-14T15:05:58.856Z,11.80
2019-05-14T15:23:31.715Z,12.10
2019-05-14T16:18:44.359Z,12.70
2019-05-14T16:22:09.491Z,12.70
2019-05-14T16:25:10.797Z,12.70
2019-05-14T16:28:03.228Z,12.70
2019-05-14T16:38:01.285Z,12.80
2019-05-14T16:40:52.309Z,12.80
2019-05-14T16:52:13.982Z,12.70
2019-05-14T16:55:24.528Z,12.70
2019-05-14T16:57:58.313Z,12.70
2019-05-14T17:00:29.406Z,12.70
2019-05-14T17:02:59.473Z,12.70
2019-05-14T17:05:30.208Z,12.70
2019-05-14T17:08:44.375Z,12.70
2019-05-14T17:11:14.235Z,12.80
2019-05-14T17:13:43.544Z,12.80
2019-05-14T17:16:12.885Z,12.90
2019-05-14T17:18:42.114Z,12.80
2019-05-14T17:21:12.296Z,12.80
2019-05-14T17:30:38.596Z,12.90
2019-05-14T17:34:23.933Z,12.90
2019-05-14T17:36:53.217Z,12.80
2019-05-14T17:39:24.736Z,12.70
2019-05-14T17:41:58.746Z,12.70
2019-05-14T17:44:27.818Z,12.70
2019-05-14T17:46:58.674Z,12.60
2019-05-14T17:49:28.424Z,12.50
2019-05-14T17:51:58.176Z,12.50
2019-05-14T17:54:28.446Z,12.50
2019-05-14T17:56:59.219Z,12.40
2019-05-14T17:59:29.768Z,12.40
2019-05-14T18:02:02.072Z,12.30
2019-05-14T18:04:31.295Z,12.20
2019-05-14T18:07:00.603Z,12.20
2019-05-14T18:09:29.914Z,12.20
2019-05-14T18:11:59.167Z,12.20
2019-05-14T18:14:30.038Z,12.20
2019-05-14T18:16:59.302Z,12.20
2019-05-14T18:19:29.124Z,12.00
2019-05-14T18:22:01.046Z,11.90
2019-05-14T18:24:51.758Z,11.90
2019-05-14T18:27:23.910Z,11.90
2019-05-14T18:29:59.484Z,11.80
2019-05-14T18:32:36.015Z,11.70
2019-05-14T18:35:07.446Z,11.70
2019-05-14T18:37:38.793Z,11.70
2019-05-14T18:40:12.116Z,11.80
2019-05-14T18:43:03.687Z,11.60
2019-05-14T18:45:33.095Z,11.50
2019-05-14T18:48:02.381Z,11.40
2019-05-14T18:50:34.601Z,11.30
2019-05-14T18:53:03.967Z,11.30
2019-05-14T18:55:39.212Z,11.20
2019-05-14T18:58:40.157Z,11.20
2019-05-14T19:01:19.652Z,11.10
2019-05-14T19:08:09.785Z,10.80
2019-05-14T19:11:50.191Z,10.80
2019-05-14T19:14:59.061Z,10.70
2019-05-14T19:17:31.634Z,10.60
2019-05-14T19:20:30.731Z,10.60
2019-05-14T19:23:38.760Z,10.50
2019-05-14T19:26:48.699Z,10.50
2019-05-14T19:30:15.117Z,10.50
2019-05-14T19:43:39.934Z,10.20
2019-05-14T19:46:10.906Z,10.00
2019-05-14T19:48:40.162Z,10.00
2019-05-14T19:51:15.262Z,10.10
2019-05-14T19:53:44.571Z,10.10
2019-05-14T19:56:13.905Z,10.00
2019-05-14T19:58:43.258Z,9.90
2019-05-14T20:01:13.923Z,9.90
2019-05-14T20:03:43.332Z,9.80
2019-05-14T20:06:18.703Z,9.80
2019-05-14T20:09:09.487Z,9.70
2019-05-14T20:11:39.924Z,9.80
2019-05-14T20:14:09.387Z,9.70
2019-05-14T20:16:39.211Z,9.70
2019-05-14T20:19:08.923Z,9.60
2019-05-14T20:21:49.316Z,9.60
2019-05-14T20:24:41.268Z,9.50
2019-05-14T20:27:12.149Z,9.50
2019-05-14T20:29:58.094Z,9.50
2019-05-14T20:32:28.742Z,9.40
2019-05-14T20:35:09.154Z,9.40
2019-05-14T20:38:29.638Z,9.40
2019-05-14T20:41:02.923Z,9.40
2019-05-14T20:43:32.909Z,9.20
2019-05-14T20:46:02.506Z,9.20
2019-05-14T20:48:32.052Z,9.20
2019-05-14T20:51:56.605Z,9.10
2019-05-14T20:54:25.964Z,9.10
2019-05-14T21:01:05.097Z,9.50
2019-05-14T21:03:36.189Z,9.30
2019-05-14T21:06:05.553Z,9.20
2019-05-14T21:08:35.404Z,9.10
2019-05-14T21:11:04.859Z,8.90
2019-05-14T21:13:34.075Z,8.80
2019-05-14T21:16:03.497Z,8.80
2019-05-14T21:18:35.309Z,8.70
2019-05-14T21:21:04.091Z,8.80
2019-05-14T21:23:33.331Z,8.60
2019-05-14T21:26:02.603Z,8.60
2019-05-14T21:28:31.822Z,8.60
2019-05-14T21:31:01.126Z,8.60
2019-05-14T21:33:30.467Z,8.60
2019-05-14T21:35:59.756Z,8.40
2019-05-14T21:38:28.979Z,8.40
2019-05-14T21:40:58.309Z,8.30
2019-05-14T21:43:29.111Z,8.20
2019-05-14T21:45:58.717Z,8.30
2019-05-14T21:48:28.916Z,8.20
2019-05-14T21:51:00.584Z,8.20
2019-05-14T21:53:29.161Z,8.20
2019-05-14T21:55:58.749Z,8.20
2019-05-14T21:58:29.256Z,8.10
2019-05-14T22:00:59.640Z,8.10
2019-05-14T22:03:28.864Z,8.10
2019-05-14T22:05:59.345Z,8.10
2019-05-14T22:08:30.373Z,8.00
2019-05-14T22:10:59.746Z,7.90
2019-05-14T22:13:28.979Z,7.90
2019-05-14T22:15:58.931Z,7.70
2019-05-14T22:18:28.193Z,7.80
2019-05-14T22:20:58.060Z,7.70
2019-05-14T22:23:29.174Z,7.70
2019-05-14T22:25:58.344Z,7.70
2019-05-14T22:28:30.411Z,7.60
2019-05-14T22:30:59.622Z,7.60
2019-05-14T22:33:29.410Z,7.60
2019-05-14T22:35:58.703Z,7.60
2019-05-14T22:38:29.357Z,7.50
2019-05-14T22:40:59.243Z,7.60
2019-05-14T22:43:29.331Z,7.60
2019-05-14T22:45:59.106Z,7.60
2019-05-14T22:48:28.811Z,7.50
2019-05-14T22:50:59.264Z,7.50
2019-05-14T22:53:30.472Z,7.60
2019-05-14T22:55:59.946Z,7.60
2019-05-14T22:58:29.255Z,7.60
2019-05-14T23:01:13.027Z,7.50
2019-05-14T23:03:29.635Z,7.50
2019-05-14T23:05:58.852Z,7.50
2019-05-14T23:08:28.471Z,7.50
2019-05-14T23:10:58.911Z,7.60
2019-05-14T23:13:28.371Z,7.60
2019-05-14T23:15:59.255Z,7.70
2019-05-14T23:18:28.808Z,7.70
2019-05-14T23:20:59.025Z,7.80
2019-05-14T23:23:28.554Z,7.70
2019-05-14T23:25:58.938Z,7.70
2019-05-14T23:28:41.058Z,7.70
2019-05-14T23:30:59.138Z,7.60
2019-05-14T23:33:28.897Z,7.60
2019-05-14T23:35:58.334Z,7.50
2019-05-14T23:38:29.014Z,7.50
2019-05-14T23:40:59.853Z,7.50
2019-05-14T23:43:29.136Z,7.50
2019-05-14T23:45:58.708Z,7.50
2019-05-14T23:48:28.034Z,7.40
2019-05-14T23:50:58.436Z,7.50
2019-05-14T23:53:29.106Z,7.40
2019-05-14T23:55:58.962Z,7.40
2019-05-14T23:58:28.902Z,7.50
